Time;durP1;ratioP1;P1;durP2;ratioP2;P2;SDS_P1;SDS_P2;PMS_P1;PMS_P2;Temp;Humidity;BMP_temperature;BMP_pressure;BME280_temperature;BME280_humidity;BME280_pressure;Samples;Min_cycle;Max_cycle;Signal;HPM_P1;HPM_P2
2021/09/24 00:02:20;;;;;;;17.00;9.70;;;;;;;7.80;82.52;98714.69;116930;1195;22281;-61
2021/09/24 00:04:50;;;;;;;19.70;12.10;;;;;;;7.81;82.88;98710.25;116772;1199;138520;-61
2021/09/24 00:07:18;;;;;;;17.20;10.60;;;;;;;7.83;82.76;98711.19;116908;1199;23804;-62
2021/09/24 00:09:46;;;;;;;16.00;10.80;;;;;;;7.84;82.96;98708.33;116806;1197;138566;-60
2021/09/24 00:12:34;;;;;;;;;;;;;;;7.85;82.91;98694.55;116856;1198;22346;-60
2021/09/24 00:15:04;;;;;;;14.70;7.80;;;;;;;7.86;83.18;98684.86;116941;1199;22938;-60
2021/09/24 00:17:52;;;;;;;11.80;8.20;;;;;;;7.86;83.10;98684.64;116808;1198;139481;-60
2021/09/24 00:20:24;;;;;;;12.40;8.50;;;;;;;7.86;83.12;98679.10;116817;1199;22331;-60
2021/09/24 00:23:12;;;;;;;11.00;8.10;;;;;;;7.88;83.20;98670.98;116823;1198;137894;-60
2021/09/24 00:25:41;;;;;;;13.30;7.60;;;;;;;7.88;83.42;98662.42;116985;1192;23111;-60
2021/09/24 00:28:19;;;;;;;12.80;8.70;;;;;;;7.89;83.47;98653.59;116829;1197;137677;-60
2021/09/24 00:31:07;;;;;;;;;;;;;;;7.90;83.24;98644.92;117132;1198;23536;-60
2021/09/24 00:33:35;;;;;;;9.90;7.20;;;;;;;7.90;83.35;98640.26;116963;1197;124880;-60
2021/09/24 00:36:03;;;;;;;12.70;8.20;;;;;;;7.88;83.71;98644.67;117023;1197;22344;-60
2021/09/24 00:38:32;;;;;;;16.00;8.50;;;;;;;7.89;83.64;98640.67;117058;1198;22407;-60
2021/09/24 00:40:59;;;;;;;12.80;9.10;;;;;;;7.91;83.95;98636.73;116913;1190;138260;-60
2021/09/24 00:43:29;;;;;;;12.80;8.80;;;;;;;7.92;83.77;98633.48;117014;1197;22448;-60
2021/09/24 00:45:57;;;;;;;10.00;7.70;;;;;;;7.92;83.81;98631.86;116929;1198;137863;-60
2021/09/24 00:48:46;;;;;;;11.30;8.50;;;;;;;7.95;83.87;98634.18;116958;1198;22403;-60
2021/09/24 00:51:14;;;;;;;12.90;8.10;;;;;;;7.96;83.80;98629.30;117050;1197;22468;-60
2021/09/24 00:53:43;;;;;;;12.40;10.00;;;;;;;7.97;83.95;98624.42;116985;1197;137813;-60
2021/09/24 00:56:12;;;;;;;11.50;7.20;;;;;;;7.97;84.04;98615.38;117067;1198;22346;-60
2021/09/24 00:58:40;;;;;;;12.90;8.90;;;;;;;7.98;84.18;98612.29;116996;1197;138519;-60
2021/09/24 01:01:28;;;;;;;10.60;7.90;;;;;;;8.00;84.17;98606.71;117045;1197;22316;-60
2021/09/24 01:03:59;;;;;;;13.60;8.60;;;;;;;8.01;84.14;98592.40;116970;1197;138351;-60
2021/09/24 01:06:28;;;;;;;11.30;8.50;;;;;;;8.01;84.16;98587.96;117118;1197;22313;-60
2021/09/24 01:08:56;;;;;;;13.20;8.60;;;;;;;8.02;84.17;98585.64;117059;1198;23095;-60
2021/09/24 01:11:24;;;;;;;11.00;8.20;;;;;;;8.04;84.46;98589.22;116964;1197;137852;-61
2021/09/24 01:13:53;;;;;;;11.10;8.90;;;;;;;8.04;84.31;98583.65;117100;1198;23558;-60
2021/09/24 01:16:40;;;;;;;;;;;;;;;8.06;84.38;98584.09;116879;1197;138057;-60
2021/09/24 01:19:09;;;;;;;11.20;8.10;;;;;;;8.09;84.50;98579.09;117083;1197;22374;-60
2021/09/24 01:21:58;;;;;;;;;;;;;;;8.10;84.63;98572.15;116971;1197;141822;-60
2021/09/24 01:24:26;;;;;;;12.30;9.20;;;;;;;8.11;84.58;98568.30;117047;1198;23072;-60
2021/09/24 01:26:55;;;;;;;15.50;9.20;;;;;;;8.13;84.71;98564.63;117093;1197;22143;-60
2021/09/24 01:29:36;;;;;;;11.40;8.80;;;;;;;8.14;84.76;98554.38;116948;1197;137709;-60
2021/09/24 01:32:05;;;;;;;14.90;9.10;;;;;;;8.16;84.67;98548.30;116970;1197;22320;-60
2021/09/24 01:34:34;;;;;;;11.80;8.70;;;;;;;8.18;84.71;98539.36;116923;1193;137703;-60
2021/09/24 01:37:02;;;;;;;11.10;8.30;;;;;;;8.19;84.83;98531.55;117072;1197;23430;-60
2021/09/24 01:39:31;;;;;;;9.40;8.10;;;;;;;8.20;84.76;98530.48;116944;1197;138269;-60
2021/09/24 01:42:02;;;;;;;11.40;8.40;;;;;;;8.20;84.97;98523.69;117027;1198;22307;-61
2021/09/24 01:44:34;;;;;;;17.30;9.50;;;;;;;8.22;85.12;98521.09;117078;1198;22311;-60
2021/09/24 01:47:03;;;;;;;16.00;9.70;;;;;;;8.25;85.13;98517.22;116826;1197;137714;-61
2021/09/24 01:49:31;;;;;;;17.30;11.20;;;;;;;8.27;85.14;98513.22;117060;1198;22303;-60
2021/09/24 01:51:59;;;;;;;12.00;8.40;;;;;;;8.29;85.26;98512.52;116812;1199;139435;-60
2021/09/24 01:54:27;;;;;;;11.30;8.90;;;;;;;8.30;85.30;98505.09;116706;1199;22387;-60
2021/09/24 01:57:02;;;;;;;11.60;8.00;;;;;;;8.31;85.32;98501.96;116853;1199;23438;-61
2021/09/24 01:59:44;;;;;;;14.70;9.10;;;;;;;8.33;85.49;98493.56;116802;1198;138216;-61
2021/09/24 02:02:13;;;;;;;10.50;8.90;;;;;;;8.35;85.44;98492.23;116946;1199;22274;-61
2021/09/24 02:04:42;;;;;;;10.50;8.20;;;;;;;8.36;85.38;98487.55;116766;1199;138199;-61
2021/09/24 02:07:10;;;;;;;17.30;8.90;;;;;;;8.37;85.44;98486.73;116907;1199;22292;-61
2021/09/24 02:09:38;;;;;;;12.20;8.50;;;;;;;8.38;85.48;98483.80;116816;1197;138004;-60
2021/09/24 02:12:07;;;;;;;9.60;8.20;;;;;;;8.39;85.57;98475.55;116936;1198;22317;-61
2021/09/24 02:14:35;;;;;;;11.10;8.60;;;;;;;8.41;85.57;98465.18;116888;1199;23230;-61
2021/09/24 02:17:09;;;;;;;12.60;9.10;;;;;;;8.43;85.68;98463.18;116835;1199;137679;-61
2021/09/24 02:19:57;;;;;;;;;;;;;;;8.44;85.69;98455.74;116927;1199;22384;-61
2021/09/24 02:22:32;;;;;;;12.50;9.10;;;;;;;8.44;85.79;98455.42;116872;1199;124893;-61
2021/09/24 02:25:20;;;;;;;;;;;;;;;8.45;85.82;98447.55;116674;1199;22396;-61
2021/09/24 02:27:48;;;;;;;;;;;;;;;8.45;85.83;98440.98;112666;1198;125127;-60
2021/09/24 02:30:19;;;;;;;10.30;8.30;;;;;;;8.45;85.88;98431.05;116958;1198;22266;-61
2021/09/24 02:33:07;;;;;;;;;;;;;;;8.45;85.95;98423.67;116937;1198;22338;-61
2021/09/24 02:35:35;;;;;;;;;;;;;;;8.45;86.02;98420.67;116871;1198;124999;-61
2021/09/24 02:38:04;;;;;;;12.30;8.70;;;;;;;8.45;86.04;98414.77;117005;1198;22297;-61
2021/09/24 02:40:33;;;;;;;12.20;9.30;;;;;;;8.46;86.10;98411.40;116867;1198;138283;-61
2021/09/24 02:43:01;;;;;;;13.00;9.60;;;;;;;8.47;86.22;98409.77;117037;1198;22343;-61
2021/09/24 02:45:30;;;;;;;12.30;10.10;;;;;;;8.47;86.12;98405.32;117033;1198;23305;-60
2021/09/24 02:47:58;;;;;;;13.90;10.80;;;;;;;8.48;86.12;98401.69;116892;1198;141079;-61
2021/09/24 02:50:31;;;;;;;12.90;9.50;;;;;;;8.50;86.15;98399.52;117074;1198;23311;-61
2021/09/24 02:53:00;;;;;;;14.20;10.70;;;;;;;8.50;86.27;98396.54;116862;1193;137859;-61
2021/09/24 02:55:28;;;;;;;15.00;10.80;;;;;;;8.51;86.40;98396.14;117021;1198;22240;-61
2021/09/24 02:58:16;;;;;;;;;;;;;;;8.52;86.39;98393.46;116899;1198;139415;-61
2021/09/24 03:00:45;;;;;;;13.40;9.40;;;;;;;8.52;86.17;98391.29;117030;1197;23662;-61
2021/09/24 03:03:29;;;;;;;12.50;9.60;;;;;;;8.52;86.32;98385.77;117020;1198;23013;-61
2021/09/24 03:05:58;;;;;;;16.00;9.90;;;;;;;8.50;86.51;98385.41;117006;1194;137898;-61
2021/09/24 03:08:45;;;;;;;;;;;;;;;8.50;86.31;98377.64;117044;1197;22354;-61
2021/09/24 03:11:13;;;;;;;15.70;11.90;;;;;;;8.50;86.66;98377.53;116935;1197;125203;-61
2021/09/24 03:13:59;;;;;;;14.40;11.00;;;;;;;8.50;86.37;98372.20;117059;1197;22287;-61
2021/09/24 03:16:28;;;;;;;14.70;10.80;;;;;;;8.51;86.64;98361.55;116850;1198;138346;-61
2021/09/24 03:19:19;;;;;;;14.50;10.30;;;;;;;8.52;86.88;98359.04;117071;1197;22341;-60
2021/09/24 03:21:51;;;;;;;13.30;9.80;;;;;;;8.53;86.68;98349.27;116984;1197;139427;-61
2021/09/24 03:24:19;;;;;;;14.10;9.90;;;;;;;8.54;86.90;98350.73;117042;1197;22339;-60
2021/09/24 03:27:07;;;;;;;14.60;10.30;;;;;;;8.56;86.94;98340.80;117051;1198;22310;-61
2021/09/24 03:29:36;;;;;;;14.00;9.50;;;;;;;8.57;87.08;98332.65;116925;1198;138448;-61
2021/09/24 03:32:05;;;;;;;15.10;10.30;;;;;;;8.58;87.07;98325.44;117051;1198;22249;-61
2021/09/24 03:34:33;;;;;;;16.40;10.20;;;;;;;8.59;86.93;98320.67;116954;1197;137988;-61
2021/09/24 03:37:01;;;;;;;11.70;9.20;;;;;;;8.61;87.04;98315.39;113797;1197;22439;-60
2021/09/24 03:39:30;;;;;;;14.30;10.40;;;;;;;8.62;87.08;98310.29;117003;1197;23200;-61
2021/09/24 03:41:58;;;;;;;15.50;10.40;;;;;;;8.63;87.26;98302.80;116939;1197;139146;-60
2021/09/24 03:44:27;;;;;;;22.40;11.60;;;;;;;8.63;86.95;98293.62;117023;1197;22358;-61
2021/09/24 03:46:55;;;;;;;18.80;11.80;;;;;;;8.66;87.04;98294.68;116933;1197;138051;-61
2021/09/24 03:49:24;;;;;;;19.00;11.20;;;;;;;8.66;87.07;98285.17;117083;1197;22273;-61
2021/09/24 03:51:52;;;;;;;14.10;11.00;;;;;;;8.68;87.08;98273.92;116892;1198;138073;-61
2021/09/24 03:54:24;;;;;;;18.90;11.30;;;;;;;8.68;87.13;98275.29;116952;1199;22286;-61
2021/09/24 03:56:52;;;;;;;14.30;10.10;;;;;;;8.70;87.03;98266.11;116958;1191;22307;-61
2021/09/24 03:59:26;;;;;;;17.70;10.20;;;;;;;8.72;87.13;98261.91;116898;1198;138837;-60
2021/09/24 04:01:54;;;;;;;16.60;9.60;;;;;;;8.73;87.15;98250.89;116987;1198;22290;-60
2021/09/24 04:04:24;;;;;;;15.30;9.70;;;;;;;8.74;87.06;98251.27;116798;1198;137740;-60
2021/09/24 04:06:52;;;;;;;14.20;10.50;;;;;;;8.75;87.10;98239.27;114143;1198;25625;-60
2021/09/24 04:09:23;;;;;;;14.20;9.60;;;;;;;8.74;86.95;98237.81;116953;1199;23094;-61
2021/09/24 04:11:51;;;;;;;13.90;9.60;;;;;;;8.75;86.95;98228.41;116839;1198;137525;-61
2021/09/24 04:14:39;;;;;;;;;;;;;;;8.76;87.08;98226.78;117070;1198;23277;-61
2021/09/24 04:17:08;;;;;;;15.70;9.90;;;;;;;8.76;87.06;98220.75;116973;1198;124114;-61
2021/09/24 04:19:41;;;;;;;17.70;10.40;;;;;;;8.76;87.07;98216.57;117046;1198;22350;-61
2021/09/24 04:22:10;;;;;;;17.10;10.30;;;;;;;8.77;87.11;98207.82;116935;1198;138091;-61
2021/09/24 04:24:39;;;;;;;18.20;10.10;;;;;;;8.77;87.08;98202.61;117012;1196;22406;-62
2021/09/24 04:27:08;;;;;;;17.80;10.00;;;;;;;8.79;87.10;98193.10;117030;1197;22374;-60
2021/09/24 04:29:56;;;;;;;16.70;10.70;;;;;;;8.81;87.25;98182.75;116803;1198;138454;-60
2021/09/24 04:32:25;;;;;;;18.40;9.70;;;;;;;8.81;87.17;98180.14;117016;1197;22274;-60
2021/09/24 04:34:53;;;;;;;20.70;11.40;;;;;;;8.83;87.06;98172.90;116925;1198;138091;-60
2021/09/24 04:37:21;;;;;;;22.10;10.40;;;;;;;8.85;87.15;98167.95;117054;1198;22403;-60
2021/09/24 04:39:50;;;;;;;15.50;9.90;;;;;;;8.85;87.11;98160.51;116917;1198;138359;-60
2021/09/24 04:42:18;;;;;;;15.20;9.20;;;;;;;8.86;87.13;98161.77;117030;1198;22234;-60
2021/09/24 04:44:48;;;;;;;12.40;8.40;;;;;;;8.86;87.18;98164.36;117073;1198;22326;-60
2021/09/24 04:47:18;;;;;;;15.40;9.50;;;;;;;8.87;87.28;98154.15;116902;1198;137861;-61
2021/09/24 04:49:46;;;;;;;18.00;8.90;;;;;;;8.89;87.26;98152.95;117009;1198;23273;-60
2021/09/24 04:52:15;;;;;;;12.30;8.60;;;;;;;8.90;87.20;98145.79;116928;1190;138025;-60
2021/09/24 04:54:42;;;;;;;15.50;10.40;;;;;;;8.90;87.21;98136.92;116960;1199;23236;-60
2021/09/24 04:57:12;;;;;;;13.10;8.50;;;;;;;8.91;87.16;98135.08;117054;1197;22168;-60
2021/09/24 04:59:40;;;;;;;13.20;8.90;;;;;;;8.91;87.33;98127.67;116887;1198;137906;-60
2021/09/24 05:02:09;;;;;;;18.00;9.20;;;;;;;8.92;87.14;98119.20;117071;1197;22430;-61
2021/09/24 05:04:37;;;;;;;14.90;8.90;;;;;;;8.93;87.28;98112.73;116929;1198;139309;-60
2021/09/24 05:07:05;;;;;;;16.70;9.70;;;;;;;8.94;87.33;98106.98;116936;1197;22482;-61
2021/09/24 05:09:33;;;;;;;13.70;8.30;;;;;;;8.94;87.19;98100.06;117021;1198;22308;-61
2021/09/24 05:12:02;;;;;;;11.50;8.00;;;;;;;8.94;87.17;98089.79;116832;1198;137869;-60
2021/09/24 05:14:30;;;;;;;15.20;9.10;;;;;;;8.95;87.32;98082.61;117028;1197;22985;-60
2021/09/24 05:16:58;;;;;;;15.90;8.90;;;;;;;8.97;87.40;98076.34;116932;1198;138136;-61
2021/09/24 05:19:26;;;;;;;12.00;8.40;;;;;;;8.98;87.33;98068.02;117002;1194;22324;-60
2021/09/24 05:21:55;;;;;;;13.90;8.30;;;;;;;8.99;87.50;98058.63;116859;1198;138183;-60
2021/09/24 05:24:25;;;;;;;12.70;8.40;;;;;;;9.00;87.52;98061.49;117059;1198;22481;-60
2021/09/24 05:26:55;;;;;;;10.60;8.10;;;;;;;9.00;87.43;98045.58;117042;1198;22312;-61
2021/09/24 05:29:28;;;;;;;14.30;8.30;;;;;;;8.99;87.37;98043.02;116941;1198;137638;-61
2021/09/24 05:31:56;;;;;;;12.90;8.90;;;;;;;9.01;87.49;98049.15;116999;1198;22976;-60
2021/09/24 05:34:24;;;;;;;11.80;8.30;;;;;;;9.01;87.58;98032.48;116925;1198;137955;-62
2021/09/24 05:36:53;;;;;;;10.90;7.50;;;;;;;9.01;87.59;98026.77;117076;1198;23028;-61
2021/09/24 05:39:21;;;;;;;11.50;8.80;;;;;;;9.02;87.56;98025.02;117015;1198;22306;-63
2021/09/24 05:41:51;;;;;;;9.90;7.70;;;;;;;9.02;87.54;98024.27;116928;1198;137935;-62
2021/09/24 05:44:19;;;;;;;10.90;7.80;;;;;;;9.03;87.64;98022.90;117015;1198;22341;-62
2021/09/24 05:46:47;;;;;;;11.00;7.80;;;;;;;9.03;87.69;98035.39;116872;1197;138082;-62
2021/09/24 05:49:18;;;;;;;11.00;7.10;;;;;;;9.04;87.64;98026.74;117052;1198;22157;-62
2021/09/24 05:51:46;;;;;;;11.80;7.30;;;;;;;9.05;87.85;98032.72;116927;1198;138562;-62
2021/09/24 05:54:14;;;;;;;10.30;7.10;;;;;;;9.07;87.84;98024.23;117031;1198;22426;-61
2021/09/24 05:56:56;;;;;;;9.90;7.20;;;;;;;9.08;87.93;98018.58;116923;1197;22342;-61
2021/09/24 05:59:24;;;;;;;9.00;7.10;;;;;;;9.09;87.84;98014.84;116848;1198;137785;-61
2021/09/24 06:01:54;;;;;;;11.20;6.80;;;;;;;9.10;87.80;98005.11;116998;1198;22327;-61
2021/09/24 06:04:23;;;;;;;11.30;7.00;;;;;;;9.12;87.70;98004.18;116861;1198;137998;-61
2021/09/24 06:06:51;;;;;;;10.90;7.40;;;;;;;9.10;87.93;97991.96;116940;1198;22365;-61
2021/09/24 06:09:19;;;;;;;10.10;8.00;;;;;;;9.12;87.91;97992.43;117028;1198;23022;-62
2021/09/24 06:12:07;;;;;;;;;;;;;;;9.12;87.87;97988.36;116911;1198;137528;-61
2021/09/24 06:14:37;;;;;;;11.20;7.60;;;;;;;9.12;88.00;97982.55;117010;1197;22323;-60
2021/09/24 06:17:24;;;;;;;10.20;7.20;;;;;;;9.12;87.93;97976.63;116852;1198;137822;-61
2021/09/24 06:19:53;;;;;;;9.50;6.60;;;;;;;9.12;88.11;97976.19;116988;1197;23302;-62
2021/09/24 06:22:41;;;;;;;;;;;;;;;9.12;88.19;97963.03;116827;1198;137939;-61
2021/09/24 06:25:10;;;;;;;7.30;5.50;;;;;;;9.13;88.03;97971.79;116952;1199;22380;-62
2021/09/24 06:27:39;;;;;;;10.20;7.10;;;;;;;9.13;88.25;97976.34;116932;1198;22321;-61
2021/09/24 06:30:09;;;;;;;7.90;6.40;;;;;;;9.15;88.21;97969.87;116645;1198;138589;-61
2021/09/24 06:32:37;;;;;;;8.50;5.90;;;;;;;9.16;88.33;97966.81;116913;1199;23131;-61
2021/09/24 06:35:07;;;;;;;8.70;6.20;;;;;;;9.18;88.33;97967.92;116847;1198;137655;-61
2021/09/24 06:37:37;;;;;;;7.50;6.30;;;;;;;9.19;88.28;97963.69;117019;1198;22397;-61
2021/09/24 06:40:05;;;;;;;9.70;5.90;;;;;;;9.20;88.28;97968.62;116734;1198;137655;-61
2021/09/24 06:42:35;;;;;;;7.30;5.90;;;;;;;9.21;88.31;97963.51;117007;1198;22313;-61
2021/09/24 06:45:08;;;;;;;7.20;5.90;;;;;;;9.23;88.40;97962.05;117038;1198;22292;-62
2021/09/24 06:47:36;;;;;;;6.80;5.40;;;;;;;9.24;88.35;97956.45;116829;1198;137803;-61
2021/09/24 06:50:05;;;;;;;7.80;6.30;;;;;;;9.25;88.26;97962.52;116972;1198;22492;-61
2021/09/24 06:52:33;;;;;;;10.10;6.20;;;;;;;9.25;88.31;97958.34;116830;1198;138284;-62
2021/09/24 06:55:01;;;;;;;10.60;6.10;;;;;;;9.26;88.16;97957.30;117026;1198;22262;-61
2021/09/24 06:57:29;;;;;;;8.10;6.10;;;;;;;9.27;88.27;97952.13;117034;1198;22232;-61
2021/09/24 06:59:58;;;;;;;6.40;5.40;;;;;;;9.29;88.18;97943.14;116841;1199;137990;-61
2021/09/24 07:02:26;;;;;;;7.70;6.10;;;;;;;9.31;88.36;97941.83;116974;1198;23507;-62
2021/09/24 07:04:55;;;;;;;13.80;6.40;;;;;;;9.33;88.31;97940.17;116885;1198;138112;-61
2021/09/24 07:07:23;;;;;;;11.40;6.60;;;;;;;9.35;88.48;97940.64;116929;1198;22419;-61
2021/09/24 07:09:51;;;;;;;7.50;6.20;;;;;;;9.37;88.45;97943.86;116871;1198;137895;-61
2021/09/24 07:12:21;;;;;;;8.50;6.00;;;;;;;9.39;88.43;97939.16;116952;1198;22310;-62
2021/09/24 07:14:51;;;;;;;7.80;6.30;;;;;;;9.41;88.49;97931.53;117047;1198;22538;-62
2021/09/24 07:17:18;;;;;;;8.10;6.60;;;;;;;9.43;88.43;97935.97;116928;1198;137962;-62
2021/09/24 07:19:48;;;;;;;10.10;6.60;;;;;;;9.45;88.41;97933.83;116968;1198;22771;-62
2021/09/24 07:22:16;;;;;;;7.80;5.90;;;;;;;9.47;88.57;97934.09;116841;1198;139165;-62
2021/09/24 07:24:45;;;;;;;10.30;6.70;;;;;;;9.47;88.42;97933.60;117046;1198;22330;-62
2021/09/24 07:27:14;;;;;;;9.30;6.90;;;;;;;9.48;88.39;97926.90;116991;1199;23445;-61
2021/09/24 07:29:42;;;;;;;8.10;6.50;;;;;;;9.50;88.52;97926.13;116862;1198;138260;-62
2021/09/24 07:32:10;;;;;;;9.00;5.90;;;;;;;9.50;88.50;97925.79;117004;1198;23297;-62
2021/09/24 07:34:42;;;;;;;7.50;6.10;;;;;;;9.52;88.40;97918.36;116911;1198;138049;-61
2021/09/24 07:37:11;;;;;;;9.80;6.60;;;;;;;9.54;88.54;97924.04;117016;1198;22915;-61
2021/09/24 07:39:39;;;;;;;7.60;6.50;;;;;;;9.54;88.43;97918.22;116997;1198;22380;-62
2021/09/24 07:42:08;;;;;;;7.30;6.20;;;;;;;9.54;88.57;97910.66;116873;1198;137831;-62
2021/09/24 07:44:36;;;;;;;10.20;6.10;;;;;;;9.55;88.56;97906.09;117041;1198;22405;-62
2021/09/24 07:47:04;;;;;;;14.50;8.50;;;;;;;9.56;88.63;97908.04;116905;1198;138274;-62
2021/09/24 07:49:33;;;;;;;15.80;9.80;;;;;;;9.59;88.48;97902.68;117066;1198;23247;-62
2021/09/24 07:52:02;;;;;;;9.10;7.30;;;;;;;9.60;88.62;97903.86;116858;1198;138645;-61
2021/09/24 07:55:50;;;;;;;8.10;6.30;;;;;;;9.67;88.69;97912.80;110991;1215;545202;-62
2021/09/24 07:58:18;;;;;;;12.50;7.70;;;;;;;9.70;88.93;97909.70;112149;1203;137557;-60
2021/09/24 08:00:47;;;;;;;11.70;6.70;;;;;;;9.77;88.89;97910.45;112290;1197;25341;-61
2021/09/24 08:03:15;;;;;;;10.40;7.80;;;;;;;9.83;89.05;97908.61;116153;1204;23715;-62
2021/09/24 08:05:49;;;;;;;17.30;11.00;;;;;;;9.92;89.12;97905.95;115989;1204;137518;-61
2021/09/24 08:08:20;;;;;;;12.90;8.40;;;;;;;10.00;89.53;97909.69;116099;1204;22298;-60
2021/09/24 08:10:47;;;;;;;12.50;7.70;;;;;;;10.06;89.40;97908.58;115993;1204;140736;-61
2021/09/24 08:13:15;;;;;;;9.20;7.30;;;;;;;10.11;89.37;97908.27;116998;1197;22250;-61
2021/09/24 08:15:48;;;;;;;9.30;7.20;;;;;;;10.15;89.20;97907.67;116968;1197;137285;-61
2021/09/24 08:18:16;;;;;;;8.40;6.80;;;;;;;10.19;89.21;97913.05;117115;1197;22286;-62
2021/09/24 08:20:45;;;;;;;10.10;6.60;;;;;;;10.22;89.11;97905.33;117076;1198;22335;-62
2021/09/24 08:23:13;;;;;;;9.80;6.80;;;;;;;10.26;89.08;97905.73;116968;1198;138386;-62
2021/09/24 08:25:56;;;;;;;9.60;6.40;;;;;;;10.33;88.98;97903.96;117117;1197;22813;-62
2021/09/24 08:28:24;;;;;;;7.30;6.30;;;;;;;10.41;89.20;97901.77;116907;1198;138410;-63
2021/09/24 08:30:54;;;;;;;7.00;6.20;;;;;;;10.50;88.91;97905.61;117059;1198;22285;-63
2021/09/24 08:33:23;;;;;;;8.70;6.00;;;;;;;10.58;89.10;97902.74;117094;1193;22324;-63
2021/09/24 08:35:53;;;;;;;6.70;5.60;;;;;;;10.67;88.80;97908.43;116881;1198;138051;-63
2021/09/24 08:38:21;;;;;;;7.80;6.00;;;;;;;10.73;88.71;97912.13;116994;1193;22385;-62
2021/09/24 08:40:49;;;;;;;11.30;6.70;;;;;;;10.82;88.77;97910.79;116911;1199;137233;-62
2021/09/24 08:43:19;;;;;;;10.20;6.00;;;;;;;10.88;88.46;97906.68;117013;1193;23062;-60
2021/09/24 08:45:48;;;;;;;8.70;5.80;;;;;;;10.94;87.99;97902.89;116777;1199;137497;-60
2021/09/24 08:48:16;;;;;;;7.20;5.00;;;;;;;11.01;87.76;97909.09;117038;1197;23098;-61
2021/09/24 08:50:45;;;;;;;7.60;5.00;;;;;;;11.05;87.47;97914.58;117009;1199;22304;-61
2021/09/24 08:53:14;;;;;;;7.70;5.40;;;;;;;11.08;87.41;97912.18;116889;1199;138631;-61
2021/09/24 08:55:44;;;;;;;6.90;4.70;;;;;;;11.11;87.14;97905.48;117052;1198;22956;-62
2021/09/24 08:58:24;;;;;;;8.20;4.10;;;;;;;11.14;86.65;97905.83;116912;1198;137949;-61
2021/09/24 09:00:52;;;;;;;6.80;4.00;;;;;;;11.18;86.36;97903.53;117037;1197;22637;-61
2021/09/24 09:03:20;;;;;;;5.40;4.40;;;;;;;11.23;86.13;97903.50;117079;1198;22355;-61
2021/09/24 09:05:51;;;;;;;8.40;4.60;;;;;;;11.29;85.71;97895.79;116903;1198;137302;-62
2021/09/24 09:08:23;;;;;;;5.60;4.40;;;;;;;11.35;85.59;97891.48;116980;1199;22337;-61
2021/09/24 09:11:00;;;;;;;7.80;4.50;;;;;;;11.42;85.20;97891.23;116796;1199;138864;-62
2021/09/24 09:13:55;;;;;;;6.50;3.80;;;;;;;11.48;84.93;97889.86;116940;1199;23284;-61
2021/09/24 09:16:29;;;;;;;8.20;4.40;;;;;;;11.54;84.78;97888.88;116925;1199;138433;-62
2021/09/24 09:19:08;;;;;;;12.90;4.90;;;;;;;11.61;84.74;97886.10;116875;1199;22292;-62
2021/09/24 09:21:58;;;;;;;5.10;4.20;;;;;;;11.75;84.68;97886.96;116874;1199;137950;-64
2021/09/24 09:24:28;;;;;;;6.60;4.20;;;;;;;11.88;84.55;97888.23;116736;1199;22338;-62
2021/09/24 09:27:17;;;;;;;6.60;4.00;;;;;;;12.02;84.60;97888.30;116960;1199;22380;-63
2021/09/24 09:30:11;;;;;;;7.90;4.70;;;;;;;12.19;84.24;97880.48;116867;1199;138570;-63
2021/09/24 09:32:43;;;;;;;5.20;3.80;;;;;;;12.35;83.80;97875.90;116966;1184;22419;-62
2021/09/24 09:35:11;;;;;;;6.40;4.20;;;;;;;12.46;82.94;97882.25;116808;1199;137481;-63
2021/09/24 09:37:40;;;;;;;7.70;4.60;;;;;;;12.54;82.66;97879.60;116917;1199;22376;-62
2021/09/24 09:40:11;;;;;;;6.10;4.00;;;;;;;12.62;82.51;97880.50;116775;1198;137997;-62
2021/09/24 09:42:40;;;;;;;6.30;3.90;;;;;;;12.72;82.25;97884.16;116929;1199;22274;-61
2021/09/24 09:45:11;;;;;;;9.50;3.80;;;;;;;12.81;81.93;97882.94;116907;1198;22317;-61
2021/09/24 09:47:40;;;;;;;5.20;4.10;;;;;;;12.87;81.28;97886.56;116760;1184;137531;-62
2021/09/24 09:50:17;;;;;;;7.60;4.10;;;;;;;12.95;81.01;97890.42;116960;1199;22964;-62
2021/09/24 09:52:56;;;;;;;8.10;4.40;;;;;;;13.04;80.77;97888.11;116699;1198;137768;-62
2021/09/24 09:55:53;;;;;;;11.50;4.20;;;;;;;13.13;80.07;97887.45;116935;1199;22981;-62
2021/09/24 09:58:25;;;;;;;4.40;3.10;;;;;;;13.17;79.05;97885.44;116795;1193;137945;-61
2021/09/24 10:01:06;;;;;;;8.70;3.70;;;;;;;13.21;78.22;97886.88;116951;1193;22363;-61
2021/09/24 10:03:39;;;;;;;4.90;2.50;;;;;;;13.25;77.32;97886.42;117019;1198;22330;-61
2021/09/24 10:06:19;;;;;;;10.20;2.40;;;;;;;13.30;75.83;97885.77;116836;1184;137134;-60
2021/09/24 10:08:50;;;;;;;4.50;1.90;;;;;;;13.33;74.13;97886.95;116982;1193;22456;-61
2021/09/24 10:11:20;;;;;;;5.20;2.10;;;;;;;13.35;73.13;97886.27;116901;1193;137374;-62
2021/09/24 10:14:11;;;;;;;6.00;2.20;;;;;;;13.37;72.56;97892.93;116984;1193;23414;-62
2021/09/24 10:16:44;;;;;;;3.80;1.80;;;;;;;13.41;71.45;97902.02;116882;1199;138559;-62
2021/09/24 10:19:13;;;;;;;4.50;2.00;;;;;;;13.42;70.43;97902.63;117003;1199;23025;-62
2021/09/24 10:21:53;;;;;;;5.70;1.60;;;;;;;13.45;69.79;97906.38;116853;1199;137702;-61
2021/09/24 10:24:21;;;;;;;5.50;1.60;;;;;;;13.50;69.18;97903.41;116983;1197;22272;-62
2021/09/24 10:26:55;;;;;;;6.40;1.70;;;;;;;13.55;68.58;97907.73;116943;1199;22417;-63
2021/09/24 10:29:29;;;;;;;3.30;1.60;;;;;;;13.59;67.61;97903.59;116733;1200;137869;-61
2021/09/24 10:32:15;;;;;;;4.60;1.80;;;;;;;13.59;66.47;97908.00;116814;1200;22954;-61
2021/09/24 10:34:52;;;;;;;5.70;1.80;;;;;;;13.59;66.14;97907.52;116792;1199;138537;-61
2021/09/24 10:37:20;;;;;;;8.50;1.60;;;;;;;13.59;66.12;97908.39;117017;1199;22240;-61
2021/09/24 10:39:48;;;;;;;4.10;1.50;;;;;;;13.61;65.98;97910.20;116797;1199;139788;-61
2021/09/24 10:42:32;;;;;;;7.10;1.60;;;;;;;13.61;65.22;97910.70;116787;1199;23055;-61
2021/09/24 10:45:17;;;;;;;11.90;3.50;;;;;;;13.55;64.57;97913.95;116864;1200;22363;-61
2021/09/24 10:47:59;;;;;;;6.70;2.40;;;;;;;13.46;63.95;97911.66;116839;1192;138230;-61
2021/09/24 10:50:28;;;;;;;8.40;2.30;;;;;;;13.35;63.79;97920.98;117032;1199;22349;-61
2021/09/24 10:53:24;;;;;;;7.00;2.80;;;;;;;13.29;63.94;97918.92;116807;1199;136863;-61
2021/09/24 10:55:52;;;;;;;8.70;2.70;;;;;;;13.20;64.49;97920.14;116978;1199;22313;-61
2021/09/24 10:58:26;;;;;;;7.40;3.20;;;;;;;13.19;64.83;97924.61;116857;1199;137456;-60
2021/09/24 11:01:01;;;;;;;11.30;3.20;;;;;;;13.17;65.13;97922.79;116886;1186;22282;-60
2021/09/24 11:03:30;;;;;;;12.60;5.40;;;;;;;13.18;65.61;97919.80;116955;1199;22344;-61
2021/09/24 11:06:08;;;;;;;9.90;2.90;;;;;;;13.21;65.81;97918.77;116760;1199;139404;-61
2021/09/24 11:08:46;;;;;;;8.50;3.70;;;;;;;13.23;66.04;97928.88;116883;1199;23463;-61
2021/09/24 11:11:20;;;;;;;15.90;5.70;;;;;;;13.25;66.25;97928.18;116823;1196;137618;-61
2021/09/24 11:14:24;;;;;;;6.20;2.70;;;;;;;13.26;66.83;97928.41;116923;1199;22306;-61
2021/09/24 11:17:36;;;;;;;13.80;4.00;;;;;;;13.27;67.40;97937.45;116863;1199;137625;-62
2021/09/24 11:20:35;;;;;;;17.60;6.10;;;;;;;13.26;67.31;97934.20;116815;1199;22453;-61
2021/09/24 11:23:39;;;;;;;;;;;;;;;13.26;67.70;97928.34;116493;1202;138152;-61
2021/09/24 11:26:29;;;;;;;17.80;4.50;;;;;;;13.30;67.93;97927.14;115851;1204;23445;-61
2021/09/24 11:29:10;;;;;;;24.40;6.50;;;;;;;13.33;67.72;97927.98;115791;1206;139759;-62
2021/09/24 11:31:53;;;;;;;23.30;7.90;;;;;;;13.35;67.91;97932.15;115911;1201;22303;-61
2021/09/24 11:34:50;;;;;;;12.90;5.20;;;;;;;13.35;67.87;97930.29;115794;1202;138712;-62
2021/09/24 11:37:23;;;;;;;12.80;5.00;;;;;;;13.35;68.02;97934.14;115749;1203;22955;-62
2021/09/24 11:40:03;;;;;;;9.60;4.20;;;;;;;13.33;68.22;97928.92;115636;1208;138152;-61
2021/09/24 11:42:36;;;;;;;19.10;6.40;;;;;;;13.28;68.98;97937.25;115748;1208;22294;-62
2021/09/24 11:45:07;;;;;;;54.20;24.90;;;;;;;13.21;69.96;97937.27;115706;1208;22281;-61
2021/09/24 11:47:41;;;;;;;22.60;11.70;;;;;;;13.13;70.92;97943.83;115623;1201;138022;-61
2021/09/24 11:50:11;;;;;;;16.20;9.30;;;;;;;13.06;71.29;97943.13;115728;1208;22300;-61
2021/09/24 11:52:52;;;;;;;11.80;7.40;;;;;;;13.01;72.02;97959.11;115655;1208;139294;-61